Startpagina
METAR-TAF:

METAR-TAF

Vliegvelden :

Genève, Zwitserland

Luchthaven Genève

breedte: 46-15N, lengte: 006-08E, hoogte: 420 m

Actueel weer

Dit bericht is 27 minuten geleden gemaakt, om 11:50 UTC
Wind 7 kt uit het zuidwesten
Temperatuur 6°C
Vochtigheid 75%
Druk 1022 hPa
Zicht 10 km of meer
Weinig wolken op 1000 ft
Gebroken wolken op 5000 ft

METAR: LSGG 191150Z 22007KT 9999 FEW010 BKN050 06/02 Q1022 NOSIG

Tijdstip: 13:17 (12:17 UTC)

Verwachting

Dit bericht is 52 minuten geleden gemaakt, om 11:25 UTC
Verwachting geldig van 19 om 12 UTC tot 20 om 18 UTC
Wind 5 kt uit het zuidwesten
Zicht 10 km of meer
Weinig wolken op 1500 ft
Verspreide wolken op 4000 ft
Gebroken wolken op 7000 ft
Kans 30% :
Tijdelijke
van 20 om 03 UTC tot 20 om 09 UTC
Zicht: 0800 m
mistbanken

TAF: LSGG 191125Z 1912/2018 23005KT 9999 FEW015 SCT040 BKN070 TX07/1914Z TNM01/2005Z TX08/2014Z PROB30 TEMPO 2003/2009 0800 BCFG

Waarnemingen en weersverwachtingen van meer dan 4000 vliegvelden (METAR en TAF).

De beschikbare stations zijn de gele en rode punten op de kaart.

Ga met uw muis naar het station om de naam te zien.

Klik dan om waarnemingen en weersverwachtingen te zien.

kaart wijzigen: klik op de groene knoppen met een zwart kruis om in te zoomen, op de groene knop met een streepje om uit te zoomen of op de groene pijlen voor aangrenzende kaarten.


METAR-TAF: